Time;durP1;ratioP1;P1;durP2;ratioP2;P2;SDS_P1;SDS_P2;PMS_P1;PMS_P2;Temp;Humidity;BMP_temperature;BMP_pressure;BME280_temperature;BME280_humidity;BME280_pressure;Samples;Min_cycle;Max_cycle;Signal;HPM_P1;HPM_P2
2023/01/26 00:00:52;;;;;;;3.85;3.55;;;;;;;0.26;70.84;95372.50;5100146;28;20203;-74
2023/01/26 00:03:19;;;;;;;3.63;3.42;;;;;;;0.21;71.66;95375.22;5100849;28;20253;-74
2023/01/26 00:05:46;;;;;;;3.72;3.42;;;;;;;0.29;71.42;95371.09;5118429;28;20200;-74
2023/01/26 00:08:12;;;;;;;4.43;4.03;;;;;;;0.26;70.97;95358.13;5118161;28;20207;-74
2023/01/26 00:10:40;;;;;;;4.38;4.07;;;;;;;0.33;71.04;95358.63;5118007;28;20193;-74
2023/01/26 00:13:10;;;;;;;4.22;3.88;;;;;;;0.36;70.51;95372.41;5118173;28;20207;-74
2023/01/26 00:15:37;;;;;;;3.90;3.60;;;;;;;0.35;70.40;95378.13;5100263;28;20200;-74
2023/01/26 00:18:04;;;;;;;3.83;3.53;;;;;;;0.40;70.29;95381.66;5100334;28;20261;-74
2023/01/26 00:20:31;;;;;;;3.83;3.53;;;;;;;0.47;70.18;95384.03;5117800;28;20249;-73
2023/01/26 00:22:57;;;;;;;3.80;3.50;;;;;;;0.42;69.93;95376.72;5100315;28;20603;-73
2023/01/26 00:25:24;;;;;;;4.05;3.75;;;;;;;0.34;69.67;95382.75;5118060;28;20187;-74
2023/01/26 00:27:51;;;;;;;4.10;3.80;;;;;;;0.24;70.46;95369.25;5100174;28;20281;-74
2023/01/26 00:30:20;;;;;;;4.18;3.88;;;;;;;0.26;70.18;95369.78;5099484;28;20608;-75
2023/01/26 00:32:47;;;;;;;3.80;3.50;;;;;;;0.34;70.32;95362.97;5117746;28;20207;-76
2023/01/26 00:35:14;;;;;;;4.00;3.67;;;;;;;0.22;70.10;95353.25;5118185;28;20192;-75
2023/01/26 00:37:41;;;;;;;4.45;4.15;;;;;;;0.25;70.49;95343.72;5117530;28;20195;-75
2023/01/26 00:40:10;;;;;;;4.10;3.80;;;;;;;0.18;70.22;95340.53;5099842;28;20191;-76
2023/01/26 00:42:36;;;;;;;3.83;3.53;;;;;;;0.26;70.26;95344.56;5099801;28;20199;-75
2023/01/26 00:45:04;;;;;;;4.18;3.88;;;;;;;0.37;70.61;95338.78;5117611;28;20180;-75
2023/01/26 00:47:32;;;;;;;4.00;3.70;;;;;;;0.28;70.36;95334.22;5117325;28;20272;-76
2023/01/26 00:49:59;;;;;;;4.22;3.92;;;;;;;0.40;70.38;95346.38;5098728;28;20204;-75
2023/01/26 00:52:26;;;;;;;4.00;3.70;;;;;;;0.40;68.97;95338.22;5099354;28;20192;-75
2023/01/26 00:54:52;;;;;;;4.85;4.35;;;;;;;0.29;69.76;95333.97;5117436;28;20245;-76
2023/01/26 00:57:19;;;;;;;4.53;4.22;;;;;;;0.27;70.00;95338.84;5117619;28;20511;-74
2023/01/26 00:59:46;;;;;;;4.63;4.22;;;;;;;0.30;69.82;95327.44;5118502;27;20238;-75
2023/01/26 01:02:13;;;;;;;4.60;4.20;;;;;;;0.30;69.46;95335.56;5137670;27;20614;-75
2023/01/26 01:04:41;;;;;;;4.30;3.90;;;;;;;0.35;69.93;95326.59;5137599;27;20195;-75
2023/01/26 01:07:08;;;;;;;4.35;3.95;;;;;;;0.33;69.65;95328.78;5119528;27;20187;-75
2023/01/26 01:09:34;;;;;;;4.22;3.83;;;;;;;0.32;69.46;95321.72;5119415;27;20187;-75
2023/01/26 01:12:02;;;;;;;4.38;4.07;;;;;;;0.31;69.32;95323.63;5119729;27;20195;-75
2023/01/26 01:14:29;;;;;;;4.72;4.43;;;;;;;0.30;69.32;95326.63;5119649;27;20187;-75
2023/01/26 01:16:56;;;;;;;4.75;4.35;;;;;;;0.36;69.34;95322.78;5137297;27;20179;-75
2023/01/26 01:19:23;;;;;;;4.15;3.83;;;;;;;0.43;69.64;95324.06;5119385;27;20207;-75
2023/01/26 01:21:51;;;;;;;4.43;4.03;;;;;;;0.54;69.04;95310.44;5119614;27;20183;-76
2023/01/26 01:24:18;;;;;;;4.18;3.88;;;;;;;0.37;69.06;95313.56;5119329;27;20561;-76
2023/01/26 01:26:45;;;;;;;4.72;4.43;;;;;;;0.35;69.16;95313.81;5137191;27;20247;-76
2023/01/26 01:29:13;;;;;;;4.68;4.28;;;;;;;0.32;69.30;95314.38;5119022;27;20222;-76
2023/01/26 01:31:40;;;;;;;4.40;4.10;;;;;;;0.33;69.74;95312.50;5119311;27;20191;-75
2023/01/26 01:34:06;;;;;;;4.40;4.10;;;;;;;0.37;69.42;95308.13;5137313;27;20266;-75
2023/01/26 01:36:33;;;;;;;4.55;4.25;;;;;;;0.28;69.32;95304.38;5118790;27;20195;-75
2023/01/26 01:39:01;;;;;;;4.43;4.07;;;;;;;0.36;69.20;95311.91;5136742;27;20179;-75
2023/01/26 01:41:28;;;;;;;4.20;3.90;;;;;;;0.40;68.84;95305.66;5119396;27;20199;-75
2023/01/26 01:44:13;;;;;;;4.18;3.88;;;;;;;0.45;68.68;95304.81;5119174;27;20183;-77
2023/01/26 01:46:43;;;;;;;4.35;4.05;;;;;;;0.55;68.53;95304.72;5137036;27;20251;-75
2023/01/26 01:49:17;;;;;;;4.10;3.80;;;;;;;0.37;68.11;95303.50;5136765;27;20199;-75
2023/01/26 01:51:47;;;;;;;4.30;4.00;;;;;;;0.41;68.21;95299.13;5118877;27;20202;-75
2023/01/26 01:54:20;;;;;;;3.95;3.65;;;;;;;0.32;68.66;95308.97;5136591;27;20263;-75
2023/01/26 01:56:50;;;;;;;4.05;3.75;;;;;;;0.31;68.82;95295.69;5136763;27;20202;-75
2023/01/26 01:59:20;;;;;;;3.95;3.65;;;;;;;0.17;69.01;95299.03;5136439;27;20314;-75
2023/01/26 02:01:47;;;;;;;3.90;3.60;;;;;;;0.11;69.07;95297.47;5136503;27;20591;-75
2023/01/26 02:04:15;;;;;;;4.32;4.03;;;;;;;0.05;69.61;95303.19;5118766;27;20198;-75
2023/01/26 02:06:46;;;;;;;4.60;4.20;;;;;;;0.06;69.50;95297.47;5136545;27;20214;-74
2023/01/26 02:10:17;;;;;;;3.95;3.65;;;;;;;0.14;68.78;95293.34;5136831;27;20282;-75
2023/01/26 02:12:02;;;;;;;4.40;4.10;;;;;;;0.04;68.92;95277.97;5118371;27;20210;-75
2023/01/26 02:14:29;;;;;;;4.28;3.97;;;;;;;-0.10;69.10;95276.97;5118432;27;20210;-75
2023/01/26 02:16:56;;;;;;;4.30;4.00;;;;;;;-0.09;69.72;95271.25;5136441;27;20179;-75
2023/01/26 02:19:30;;;;;;;4.95;4.55;;;;;;;-0.10;69.92;95261.50;5136384;27;20190;-75
2023/01/26 02:22:00;;;;;;;4.43;4.03;;;;;;;-0.08;69.32;95262.03;5136539;27;20183;-75
2023/01/26 02:24:30;;;;;;;4.28;3.97;;;;;;;-0.07;69.71;95249.31;5136479;27;20195;-75
2023/01/26 02:26:58;;;;;;;4.20;3.90;;;;;;;-0.01;69.68;95245.44;5136346;27;20201;-74
2023/01/26 02:29:25;;;;;;;4.40;4.10;;;;;;;-0.02;69.73;95241.94;5118524;27;20226;-75
2023/01/26 02:31:52;;;;;;;4.28;3.97;;;;;;;-0.09;69.47;95246.84;5118303;28;20202;-75
2023/01/26 02:34:19;;;;;;;4.00;3.70;;;;;;;-0.23;69.45;95245.88;5135947;27;20587;-75
2023/01/26 02:36:56;;;;;;;4.10;3.80;;;;;;;-0.20;69.87;95241.78;5136173;27;20183;-75
2023/01/26 02:39:35;;;;;;;4.03;3.72;;;;;;;-0.02;69.73;95238.41;5136074;28;20191;-75
2023/01/26 02:44:47;;;;;;;4.05;3.75;;;;;;;-0.23;69.90;95237.72;5135802;28;20194;-75
2023/01/26 02:47:15;;;;;;;4.32;3.92;;;;;;;-0.22;70.14;95224.97;5118628;28;20187;-74
2023/01/26 02:49:49;;;;;;;4.28;3.88;;;;;;;-0.19;70.08;95230.66;5135786;28;20203;-74
2023/01/26 02:52:17;;;;;;;4.07;3.78;;;;;;;-0.15;69.95;95215.44;5117968;28;20202;-75
2023/01/26 02:57:29;;;;;;;3.90;3.60;;;;;;;-0.30;70.20;95223.69;5135554;28;20195;-75
2023/01/26 02:59:56;;;;;;;4.40;4.10;;;;;;;-0.15;70.29;95217.34;5115433;28;20180;-75
2023/01/26 03:02:23;;;;;;;3.90;3.60;;;;;;;-0.04;69.73;95213.47;5097315;28;20654;-75
2023/01/26 03:04:50;;;;;;;4.20;3.80;;;;;;;-0.02;69.51;95206.69;5097268;28;20204;-75
2023/01/26 03:07:17;;;;;;;3.70;3.50;;;;;;;0.02;68.53;95203.41;5115431;28;20242;-74
2023/01/26 03:09:43;;;;;;;4.10;3.80;;;;;;;0.09;69.03;95201.97;5115413;28;20237;-74
2023/01/26 03:12:10;;;;;;;3.75;3.47;;;;;;;0.01;68.66;95201.78;5098712;28;20188;-75
2023/01/26 03:14:38;;;;;;;4.20;3.90;;;;;;;0.04;69.23;95198.50;5101392;28;20607;-75
2023/01/26 03:17:05;;;;;;;3.97;3.60;;;;;;;-0.01;69.29;95193.94;5119712;28;20184;-75
2023/01/26 03:27:50;;;;;;;4.55;4.25;;;;;;;0.14;68.76;95184.84;5118939;28;20180;-75
2023/01/26 03:30:19;;;;;;;3.90;3.65;;;;;;;0.09;68.61;95176.78;5101416;28;20195;-75
2023/01/26 03:32:46;;;;;;;3.90;3.60;;;;;;;0.09;68.06;95180.28;5118877;28;20219;-75
2023/01/26 03:35:14;;;;;;;4.07;3.78;;;;;;;0.22;68.19;95176.94;5118921;28;20195;-74
2023/01/26 03:37:42;;;;;;;4.45;4.05;;;;;;;0.18;68.37;95173.19;5118474;28;20290;-74
2023/01/26 03:56:39;;;;;;;4.75;4.40;;;;;;;0.13;69.65;95154.22;5118447;28;20223;-74
2023/01/26 03:59:08;;;;;;;5.00;4.60;;;;;;;0.16;68.77;95159.06;5113839;27;20227;-74
2023/01/26 04:01:37;;;;;;;4.68;4.35;;;;;;;0.18;68.58;95164.19;5139408;27;20215;-73
2023/01/26 04:09:34;;;;;;;4.10;3.80;;;;;;;-0.12;69.56;95144.38;5138701;27;20210;-73
2023/01/26 04:12:01;;;;;;;4.05;3.75;;;;;;;-0.21;69.60;95143.38;5120932;27;20198;-73
2023/01/26 04:22:44;;;;;;;3.92;3.63;;;;;;;-0.36;70.13;95116.41;5138242;27;20343;-73
2023/01/26 04:25:12;;;;;;;3.95;3.70;;;;;;;-0.29;70.24;95108.72;5119763;27;20251;-71
2023/01/26 04:27:40;;;;;;;3.88;3.58;;;;;;;-0.26;70.16;95111.69;5138480;27;20518;-72
2023/01/26 04:30:08;;;;;;;4.32;4.03;;;;;;;-0.17;69.56;95102.97;5138217;27;20688;-71
2023/01/26 04:32:37;;;;;;;3.95;3.70;;;;;;;-0.16;69.93;95101.88;5138403;27;20179;-71
2023/01/26 04:35:05;;;;;;;4.80;4.40;;;;;;;-0.33;70.54;95103.09;5138338;27;20191;-73
2023/01/26 04:37:32;;;;;;;3.50;3.30;;;;;;;-0.36;70.62;95111.00;5120153;27;20203;-72
2023/01/26 04:39:59;;;;;;;4.00;3.70;;;;;;;-0.37;70.83;95103.94;5138263;27;20190;-73
2023/01/26 04:42:26;;;;;;;3.60;3.33;;;;;;;-0.43;70.77;95110.50;5138061;27;20214;-73
2023/01/26 04:44:53;;;;;;;4.55;4.15;;;;;;;-0.49;70.64;95115.94;5120091;27;20203;-73
2023/01/26 04:47:20;;;;;;;3.67;3.47;;;;;;;-0.47;70.83;95114.84;5138101;27;20215;-73
2023/01/26 04:49:48;;;;;;;4.07;3.78;;;;;;;-0.49;71.28;95123.25;5119830;27;20219;-73
2023/01/26 04:52:15;;;;;;;3.40;3.20;;;;;;;-0.47;70.88;95120.25;5137753;27;20175;-73
2023/01/26 04:54:42;;;;;;;3.60;3.30;;;;;;;-0.33;70.61;95115.81;5137694;27;20209;-72
2023/01/26 04:57:10;;;;;;;4.00;3.70;;;;;;;-0.34;70.25;95120.44;5138232;27;20214;-73
2023/01/26 04:59:37;;;;;;;3.83;3.58;;;;;;;-0.31;70.54;95121.78;5137866;27;20300;-73
2023/01/26 05:02:03;;;;;;;4.22;3.88;;;;;;;-0.30;70.04;95120.69;5137909;27;20192;-73
2023/01/26 05:04:30;;;;;;;3.70;3.40;;;;;;;-0.23;69.90;95117.66;5119601;27;20251;-73
2023/01/26 05:06:59;;;;;;;3.40;3.20;;;;;;;-0.16;69.65;95123.56;5137710;27;20179;-73
2023/01/26 05:09:26;;;;;;;3.65;3.42;;;;;;;-0.11;69.77;95128.94;5138059;27;20266;-73
2023/01/26 05:11:52;;;;;;;4.22;3.58;;;;;;;-0.22;69.54;95106.50;5137663;27;20191;-73
2023/01/26 05:14:19;;;;;;;3.47;3.28;;;;;;;-0.05;69.76;95104.19;5137631;27;20187;-74
2023/01/26 05:16:46;;;;;;;3.83;3.53;;;;;;;-0.02;68.76;95110.97;5137299;27;20202;-74
2023/01/26 05:19:13;;;;;;;4.25;3.92;;;;;;;-0.02;68.89;95106.34;5138165;27;20183;-74
2023/01/26 05:21:39;;;;;;;4.70;4.30;;;;;;;-0.02;69.10;95106.34;5137572;27;20190;-71
2023/01/26 05:24:11;;;;;;;3.85;3.60;;;;;;;-0.12;69.21;95109.13;5137430;27;20182;-74
2023/01/26 05:26:38;;;;;;;3.58;3.38;;;;;;;-0.05;69.45;95104.19;5119439;27;20195;-74
2023/01/26 05:29:05;;;;;;;3.58;3.28;;;;;;;0.14;70.38;95101.56;5137514;27;20571;-75
2023/01/26 05:31:32;;;;;;;4.40;2.70;;;;;;;0.37;70.20;95089.16;5119450;27;20202;-74
2023/01/26 05:33:59;;;;;;;3.42;3.20;;;;;;;0.40;70.04;95099.44;5137249;27;20247;-75
2023/01/26 05:36:26;;;;;;;3.15;2.90;;;;;;;0.59;69.23;95094.06;5136763;27;20195;-75
2023/01/26 05:38:52;;;;;;;3.63;3.42;;;;;;;0.55;67.50;95089.50;5137420;27;20206;-73
2023/01/26 05:41:21;;;;;;;3.85;3.55;;;;;;;0.35;67.27;95093.25;5119414;27;20191;-74
2023/01/26 05:43:47;;;;;;;4.20;3.80;;;;;;;0.32;67.74;95086.47;5119537;27;20179;-74
2023/01/26 05:46:14;;;;;;;4.88;4.45;;;;;;;0.24;68.40;95085.19;5119697;27;20364;-73
2023/01/26 05:48:41;;;;;;;6.03;5.53;;;;;;;0.07;68.38;95089.44;5119725;27;20198;-74
2023/01/26 05:51:08;;;;;;;4.43;4.13;;;;;;;0.14;68.72;95100.78;5137945;27;20230;-74
2023/01/26 05:53:35;;;;;;;4.10;3.80;;;;;;;0.23;67.69;95090.94;5137181;27;20187;-74
2023/01/26 05:56:02;;;;;;;4.90;4.60;;;;;;;0.17;68.11;95100.19;5137531;27;20195;-74
2023/01/26 05:58:30;;;;;;;4.85;4.45;;;;;;;-0.12;68.56;95095.59;5119874;27;20565;-73
2023/01/26 06:01:04;;;;;;;5.47;4.93;;;;;;;-0.16;69.73;95099.16;5119548;27;20201;-74
2023/01/26 06:03:30;;;;;;;4.82;4.45;;;;;;;-0.07;68.76;95105.59;5137547;27;20183;-73
2023/01/26 06:05:57;;;;;;;4.72;4.32;;;;;;;-0.07;69.04;95100.97;5137292;27;20191;-73
2023/01/26 06:08:24;;;;;;;4.78;4.47;;;;;;;-0.09;68.71;95100.44;5136597;27;20427;-74
2023/01/26 06:10:50;;;;;;;5.30;4.90;;;;;;;0.10;68.40;95097.00;5137200;27;20199;-71
2023/01/26 06:13:17;;;;;;;5.90;5.50;;;;;;;0.15;68.29;95091.56;5136789;27;20202;-73
2023/01/26 06:15:45;;;;;;;5.70;5.30;;;;;;;0.06;68.36;95088.66;5118559;27;20195;-74
2023/01/26 06:18:12;;;;;;;6.70;6.10;;;;;;;0.04;68.94;95080.00;5135697;27;20215;-73
2023/01/26 06:20:39;;;;;;;5.10;4.65;;;;;;;0.05;68.62;95088.94;5118391;27;20195;-73
2023/01/26 06:23:10;;;;;;;6.25;5.85;;;;;;;0.19;68.31;95090.69;5136490;27;20183;-74
2023/01/26 06:25:38;;;;;;;6.88;6.18;;;;;;;0.31;68.47;95087.59;5136570;27;20219;-74
2023/01/26 06:28:05;;;;;;;7.15;6.55;;;;;;;0.35;67.54;95074.25;5118328;27;20206;-73
2023/01/26 06:30:31;;;;;;;5.85;5.43;;;;;;;0.17;68.10;95075.78;5118305;27;20271;-74
2023/01/26 06:32:59;;;;;;;7.20;6.70;;;;;;;0.08;68.49;95064.78;5136339;27;20190;-74
2023/01/26 06:35:26;;;;;;;7.03;6.43;;;;;;;0.03;69.08;95070.22;5136168;27;20179;-74
2023/01/26 06:37:53;;;;;;;6.43;5.93;;;;;;;-0.07;69.29;95071.16;5136520;27;20210;-71
2023/01/26 06:40:20;;;;;;;6.93;6.32;;;;;;;-0.08;69.34;95068.72;5136433;27;20183;-71
2023/01/26 06:42:48;;;;;;;6.90;6.30;;;;;;;-0.03;68.99;95061.34;5118218;28;20602;-71
2023/01/26 06:45:16;;;;;;;6.97;6.47;;;;;;;-0.16;69.53;95072.03;5136026;28;20611;-71
2023/01/26 06:47:45;;;;;;;6.70;6.20;;;;;;;-0.14;69.89;95073.38;5120805;27;20198;-71
2023/01/26 06:50:14;;;;;;;6.50;5.95;;;;;;;-0.11;69.62;95075.53;5122595;27;20250;-71
2023/01/26 06:52:43;;;;;;;7.18;6.55;;;;;;;0.00;69.16;95078.97;5122254;27;20191;-71
2023/01/26 06:55:17;;;;;;;7.40;6.68;;;;;;;-0.06;69.64;95070.06;5140467;27;20203;-71
2023/01/26 06:57:43;;;;;;;7.10;6.55;;;;;;;-0.09;69.30;95065.19;5139004;27;20213;-71
2023/01/26 07:00:12;;;;;;;7.30;6.70;;;;;;;0.06;69.02;95055.28;5119777;28;20253;-71
2023/01/26 07:02:39;;;;;;;7.57;6.97;;;;;;;0.17;68.13;95054.09;5119602;28;20206;-76
2023/01/26 07:05:07;;;;;;;7.65;6.95;;;;;;;0.28;68.16;95052.88;5102621;28;20195;-72
2023/01/26 07:07:35;;;;;;;7.60;7.00;;;;;;;0.27;67.99;95051.28;5119817;28;20182;-74
2023/01/26 07:10:05;;;;;;;7.70;7.07;;;;;;;0.31;68.28;95043.38;5119189;28;20203;-71
2023/01/26 07:12:41;;;;;;;6.53;6.03;;;;;;;0.28;68.03;95047.47;5119084;28;20199;-73
2023/01/26 07:15:09;;;;;;;8.18;7.47;;;;;;;0.27;67.79;95047.75;5102060;28;20249;-71
2023/01/26 07:17:37;;;;;;;7.55;6.85;;;;;;;0.31;67.79;95055.03;5101788;28;20226;-73
2023/01/26 07:20:04;;;;;;;7.85;7.03;;;;;;;0.43;67.48;95051.91;5101263;28;20199;-75
2023/01/26 07:22:31;;;;;;;7.35;6.68;;;;;;;0.44;67.51;95048.09;5118811;28;20188;-74
2023/01/26 07:24:59;;;;;;;7.85;7.20;;;;;;;0.52;67.39;95050.19;5119211;28;20584;-74
2023/01/26 07:27:26;;;;;;;7.00;6.40;;;;;;;0.56;67.11;95040.34;5119103;28;20207;-74
2023/01/26 07:29:53;;;;;;;6.65;6.05;;;;;;;0.60;67.22;95035.97;5118703;28;20211;-74
2023/01/26 07:32:20;;;;;;;6.93;6.35;;;;;;;0.53;67.05;95040.94;5119093;28;20187;-75
2023/01/26 07:34:47;;;;;;;6.55;5.82;;;;;;;0.46;67.56;95040.47;5118802;28;20207;-75
2023/01/26 07:37:14;;;;;;;6.55;6.03;;;;;;;0.58;67.15;95046.31;5118906;28;20196;-75
2023/01/26 07:39:41;;;;;;;6.38;5.78;;;;;;;0.63;67.23;95040.81;5118843;28;20199;-75
2023/01/26 07:42:12;;;;;;;6.57;6.00;;;;;;;0.62;67.57;95039.19;5100939;28;20196;-75
2023/01/26 07:44:38;;;;;;;6.82;6.10;;;;;;;0.57;67.19;95027.59;5118553;28;20256;-75
2023/01/26 07:47:05;;;;;;;6.60;6.00;;;;;;;0.67;67.62;95035.59;5118837;28;20192;-75
2023/01/26 07:49:32;;;;;;;5.72;5.20;;;;;;;0.69;66.18;95034.22;5100972;28;20215;-75
2023/01/26 07:51:59;;;;;;;6.47;5.97;;;;;;;0.63;66.96;95042.72;5100852;28;20202;-75
2023/01/26 07:54:26;;;;;;;6.15;5.65;;;;;;;0.66;67.51;95047.56;5100704;28;20508;-75
2023/01/26 07:56:53;;;;;;;6.00;5.50;;;;;;;0.71;66.77;95051.00;5100499;28;20207;-75
2023/01/26 07:59:21;;;;;;;5.55;5.15;;;;;;;0.69;66.98;95046.97;5115430;27;20234;-75
2023/01/26 08:01:49;;;;;;;5.65;5.25;;;;;;;0.67;66.46;95041.84;5139016;27;20190;-75
2023/01/26 08:04:16;;;;;;;6.22;5.72;;;;;;;0.74;66.62;95029.81;5138991;27;20202;-75
2023/01/26 08:06:42;;;;;;;4.97;4.57;;;;;;;0.72;66.04;95027.38;5120743;27;20259;-75
2023/01/26 08:09:09;;;;;;;5.85;5.38;;;;;;;0.67;66.70;95024.75;5121480;27;20210;-75
2023/01/26 08:11:36;;;;;;;5.47;5.07;;;;;;;0.69;66.84;95030.69;5120749;27;20215;-75
2023/01/26 08:14:03;;;;;;;5.40;4.90;;;;;;;0.80;67.07;95029.47;5138851;27;20190;-74
2023/01/26 08:16:31;;;;;;;4.75;4.40;;;;;;;0.89;66.25;95029.63;5138749;27;20195;-74
2023/01/26 08:18:58;;;;;;;4.80;4.50;;;;;;;1.00;66.19;95012.06;5120676;27;20213;-75
2023/01/26 08:21:25;;;;;;;4.50;4.10;;;;;;;0.91;65.59;95011.94;5120708;27;20218;-75
2023/01/26 08:23:53;;;;;;;4.88;4.47;;;;;;;0.84;66.34;95006.06;5120944;27;20206;-75
2023/01/26 08:26:21;;;;;;;5.50;5.00;;;;;;;0.84;66.44;95013.41;5138620;27;20191;-75
2023/01/26 08:31:34;;;;;;;4.93;4.53;;;;;;;0.89;65.80;95002.47;5120563;27;20224;-75
2023/01/26 08:34:00;;;;;;;4.63;4.22;;;;;;;0.93;65.99;95001.56;5120781;27;20212;-72
2023/01/26 08:36:27;;;;;;;4.65;4.35;;;;;;;0.93;65.62;95000.75;5120274;27;20194;-73
2023/01/26 08:38:54;;;;;;;4.80;4.40;;;;;;;0.94;65.59;94995.06;5120307;27;20198;-73
2023/01/26 08:41:21;;;;;;;4.75;4.35;;;;;;;0.99;65.39;94986.03;5120272;27;20202;-72
2023/01/26 08:43:48;;;;;;;4.57;4.28;;;;;;;1.14;65.66;94995.84;5138077;27;20183;-72
2023/01/26 08:46:15;;;;;;;5.40;4.80;;;;;;;1.39;68.73;94991.94;5138063;27;20194;-73
2023/01/26 08:48:43;;;;;;;4.68;4.35;;;;;;;1.57;65.77;94990.28;5138035;27;20221;-72
2023/01/26 08:51:09;;;;;;;4.70;4.30;;;;;;;1.55;65.33;94998.72;5138157;27;20210;-72
2023/01/26 08:53:37;;;;;;;4.80;4.40;;;;;;;1.57;64.51;94998.44;5137987;27;20205;-72
2023/01/26 08:56:05;;;;;;;5.13;4.63;;;;;;;1.55;64.29;95000.63;5138017;27;20209;-72
2023/01/26 08:58:32;;;;;;;4.40;4.05;;;;;;;1.53;64.24;95003.66;5137740;27;20234;-72
2023/01/26 09:00:59;;;;;;;4.80;4.40;;;;;;;1.43;64.42;94998.38;5121224;27;20260;-72
2023/01/26 09:03:27;;;;;;;4.78;4.38;;;;;;;1.34;64.04;94992.78;5138229;27;20187;-72
2023/01/26 09:05:59;;;;;;;4.70;4.13;;;;;;;1.40;64.12;94993.53;5137839;27;20256;-72
2023/01/26 09:08:26;;;;;;;4.25;3.90;;;;;;;1.42;63.82;94996.78;5137588;27;20202;-72
2023/01/26 09:10:53;;;;;;;4.68;4.38;;;;;;;1.44;64.45;95002.69;5136994;27;20199;-72
2023/01/26 09:13:19;;;;;;;6.10;5.50;;;;;;;1.35;63.73;94993.63;5137844;27;20267;-72
2023/01/26 09:15:46;;;;;;;4.78;4.43;;;;;;;1.38;64.22;95006.59;5137617;27;20300;-72
2023/01/26 09:18:13;;;;;;;3.92;3.63;;;;;;;1.28;64.02;94994.00;5119669;27;20252;-72
2023/01/26 09:20:40;;;;;;;4.00;3.70;;;;;;;1.14;64.67;94987.69;5137039;27;20196;-73
2023/01/26 09:23:09;;;;;;;4.22;3.83;;;;;;;1.19;64.80;94982.16;5120279;27;20207;-73
2023/01/26 09:25:36;;;;;;;3.72;3.42;;;;;;;1.24;64.15;94979.41;5119177;27;20213;-72
2023/01/26 09:28:03;;;;;;;4.18;3.80;;;;;;;1.27;64.68;94967.94;5119448;27;20191;-73
2023/01/26 09:30:30;;;;;;;3.70;3.45;;;;;;;1.30;64.54;94972.75;5137334;27;20223;-72
2023/01/26 09:32:58;;;;;;;4.10;3.25;;;;;;;1.28;64.59;94966.81;5120040;27;20190;-72
2023/01/26 09:35:25;;;;;;;3.67;3.38;;;;;;;1.26;64.79;94954.63;5119633;27;20570;-72
2023/01/26 09:37:51;;;;;;;3.55;3.35;;;;;;;1.25;64.51;94944.88;5137332;27;20256;-72
2023/01/26 09:40:23;;;;;;;3.67;3.17;;;;;;;1.25;65.04;94950.31;5119143;27;20188;-72
2023/01/26 09:43:01;;;;;;;3.10;2.90;;;;;;;1.18;65.18;94954.19;5136740;27;20642;-73
2023/01/26 09:45:31;;;;;;;4.20;3.80;;;;;;;1.20;64.89;94948.50;5118644;27;20216;-72
2023/01/26 09:48:16;;;;;;;5.18;3.35;;;;;;;1.18;64.91;94958.84;5118960;27;20252;-72
2023/01/26 09:50:48;;;;;;;3.30;3.00;;;;;;;1.08;65.01;94948.13;5136351;27;20669;-72
2023/01/26 09:53:17;;;;;;;4.30;3.67;;;;;;;1.08;65.92;94938.06;5136946;27;20191;-72
2023/01/26 09:55:46;;;;;;;5.57;3.58;;;;;;;1.07;65.59;94927.50;5118665;27;20191;-73
2023/01/26 09:58:15;;;;;;;6.20;3.80;;;;;;;1.03;66.32;94929.19;5118709;27;20223;-72
2023/01/26 10:00:46;;;;;;;5.15;4.03;;;;;;;1.04;66.07;94931.59;5136700;27;20179;-72
2023/01/26 10:03:20;;;;;;;5.28;3.92;;;;;;;1.01;66.06;94925.97;5136763;27;20239;-72
2023/01/26 10:05:51;;;;;;;4.38;3.97;;;;;;;0.94;65.99;94938.03;5136602;27;20195;-72
2023/01/26 10:08:19;;;;;;;4.95;3.72;;;;;;;0.96;66.34;94927.66;5118798;27;20187;-72
2023/01/26 10:10:49;;;;;;;3.05;2.85;;;;;;;0.99;66.47;94933.63;5136823;27;20243;-72
2023/01/26 10:13:17;;;;;;;3.80;3.50;;;;;;;0.95;66.40;94927.97;5136926;27;20199;-72
2023/01/26 10:15:48;;;;;;;4.47;4.07;;;;;;;0.95;66.77;94915.19;5118552;27;20195;-72
2023/01/26 10:18:18;;;;;;;5.07;3.83;;;;;;;0.96;66.68;94911.38;5118117;27;20631;-72
2023/01/26 10:20:47;;;;;;;4.20;3.80;;;;;;;0.95;66.66;94895.38;5117910;27;20599;-72
2023/01/26 10:23:17;;;;;;;4.03;3.60;;;;;;;0.94;66.54;94877.44;5118090;27;20247;-72
2023/01/26 10:25:46;;;;;;;5.75;4.32;;;;;;;0.93;66.03;94873.13;5136218;27;20195;-72
2023/01/26 10:28:14;;;;;;;4.68;4.28;;;;;;;0.87;66.35;94868.88;5118367;28;20187;-72
2023/01/26 10:30:42;;;;;;;3.70;3.40;;;;;;;0.88;66.84;94859.66;5135635;27;20211;-73
2023/01/26 10:33:15;;;;;;;5.95;4.50;;;;;;;0.89;66.83;94855.81;5118168;27;20618;-73
2023/01/26 10:35:42;;;;;;;5.80;4.68;;;;;;;0.94;66.13;94862.00;5118259;28;20191;-73
2023/01/26 10:38:38;;;;;;;6.25;4.50;;;;;;;1.07;66.15;94832.44;5118016;27;20244;-73
2023/01/26 10:41:08;;;;;;;5.15;4.65;;;;;;;1.07;65.88;94838.66;5136029;27;20183;-73
2023/01/26 10:43:41;;;;;;;4.68;4.28;;;;;;;1.05;66.29;94826.47;5118222;28;20226;-73
2023/01/26 10:46:24;;;;;;;3.20;3.00;;;;;;;1.06;65.76;94830.84;5136230;28;20183;-72
2023/01/26 10:48:51;;;;;;;5.22;3.60;;;;;;;0.96;65.80;94813.59;5118157;28;20191;-73
2023/01/26 10:51:24;;;;;;;3.50;3.20;;;;;;;0.99;65.74;94816.84;5136039;28;20210;-73
2023/01/26 10:53:51;;;;;;;4.55;3.70;;;;;;;1.03;66.15;94824.06;5117877;28;20191;-73
2023/01/26 10:56:19;;;;;;;6.13;3.47;;;;;;;1.07;65.91;94822.38;5117791;28;20202;-72
2023/01/26 10:58:49;;;;;;;4.20;3.72;;;;;;;1.12;65.88;94805.16;5117133;28;20642;-72
2023/01/26 11:01:17;;;;;;;4.00;3.70;;;;;;;1.15;66.08;94796.44;5118059;28;20198;-73
2023/01/26 11:04:04;;;;;;;4.68;3.70;;;;;;;1.11;66.24;94796.22;5136162;28;20221;-73
2023/01/26 11:06:32;;;;;;;3.30;3.00;;;;;;;1.04;65.74;94782.22;5135939;28;20580;-72
2023/01/26 11:09:09;;;;;;;5.93;4.60;;;;;;;0.96;66.51;94778.28;5117956;28;20251;-73
2023/01/26 11:11:37;;;;;;;4.30;3.60;;;;;;;1.02;66.04;94773.59;5135918;28;20222;-72
2023/01/26 11:14:12;;;;;;;4.40;2.78;;;;;;;1.06;66.31;94776.50;5135767;28;20179;-73
2023/01/26 11:16:41;;;;;;;3.83;3.53;;;;;;;1.16;65.93;94779.00;5117654;28;20187;-72
2023/01/26 11:19:13;;;;;;;3.53;2.78;;;;;;;1.19;66.10;94771.06;5117988;28;20587;-73
2023/01/26 11:21:42;;;;;;;2.80;2.60;;;;;;;1.23;65.69;94773.19;5117488;28;20607;-73
2023/01/26 11:24:13;;;;;;;2.67;2.50;;;;;;;1.27;64.96;94760.59;5135802;28;20195;-72
2023/01/26 11:26:58;;;;;;;4.07;3.28;;;;;;;1.30;65.20;94758.09;5135725;28;20190;-72
2023/01/26 11:29:39;;;;;;;3.42;3.20;;;;;;;1.30;65.46;94743.72;5117800;28;20255;-73
2023/01/26 11:32:13;;;;;;;2.80;2.60;;;;;;;1.16;65.95;94755.41;5135800;27;20203;-72
2023/01/26 11:34:47;;;;;;;3.00;2.80;;;;;;;1.21;66.11;94751.78;5139144;27;20484;-73
2023/01/26 11:37:36;;;;;;;2.97;2.78;;;;;;;1.25;65.95;94741.91;5139870;27;20195;-72
2023/01/26 11:40:14;;;;;;;3.10;2.80;;;;;;;1.29;65.55;94740.19;5121903;27;20194;-72
2023/01/26 11:42:48;;;;;;;2.90;2.70;;;;;;;1.29;65.37;94734.75;5104502;27;20198;-73
2023/01/26 11:45:21;;;;;;;3.10;2.88;;;;;;;1.35;66.50;94733.56;5121787;27;20187;-73
2023/01/26 11:48:02;;;;;;;3.03;2.83;;;;;;;1.45;65.55;94721.66;5121426;27;20207;-72
2023/01/26 11:50:34;;;;;;;3.75;3.45;;;;;;;1.50;65.41;94734.34;5139225;27;20248;-73
2023/01/26 11:53:14;;;;;;;3.83;3.53;;;;;;;1.57;64.78;94732.03;5139294;27;20218;-72
2023/01/26 11:56:03;;;;;;;3.75;3.45;;;;;;;1.66;65.66;94724.75;5121073;27;20241;-72
2023/01/26 11:58:34;;;;;;;4.60;3.92;;;;;;;1.73;65.33;94741.44;5135445;27;20227;-72
2023/01/26 12:01:03;;;;;;;3.03;2.83;;;;;;;1.77;65.18;94720.69;5139033;27;20195;-72
2023/01/26 12:03:34;;;;;;;2.95;2.75;;;;;;;1.65;65.06;94715.78;5139246;27;20217;-72
2023/01/26 12:06:04;;;;;;;3.13;2.85;;;;;;;1.60;65.61;94712.41;5120712;27;20654;-72
2023/01/26 12:08:38;;;;;;;3.00;2.80;;;;;;;1.61;65.10;94708.56;5120984;27;20221;-72
2023/01/26 12:11:24;;;;;;;2.90;2.70;;;;;;;1.66;64.96;94705.72;5138868;27;20242;-72
2023/01/26 12:14:02;;;;;;;3.38;3.17;;;;;;;1.68;65.18;94693.44;5138776;27;20236;-72
2023/01/26 12:16:44;;;;;;;3.58;3.28;;;;;;;1.74;65.68;94682.44;5120663;27;20198;-72
2023/01/26 12:19:24;;;;;;;3.42;3.22;;;;;;;1.81;65.24;94674.66;5120889;27;20191;-72
2023/01/26 12:21:54;;;;;;;3.58;3.38;;;;;;;1.84;64.93;94660.44;5120565;27;20535;-72
2023/01/26 12:24:26;;;;;;;4.18;3.88;;;;;;;1.80;65.71;94662.19;5120448;27;20191;-72
2023/01/26 12:26:53;;;;;;;3.63;3.35;;;;;;;1.74;66.16;94664.19;5138444;27;20240;-72
2023/01/26 12:29:25;;;;;;;3.30;3.10;;;;;;;1.78;65.79;94657.06;5120538;27;20213;-72
2023/01/26 12:31:56;;;;;;;3.85;3.50;;;;;;;1.65;65.84;94658.69;5138379;27;20214;-73
2023/01/26 12:34:26;;;;;;;3.63;3.42;;;;;;;1.54;66.24;94657.31;5120598;27;20202;-73